Time;durP1;ratioP1;P1;durP2;ratioP2;P2;SDS_P1;SDS_P2;PMS_P1;PMS_P2;Temp;Humidity;BMP_temperature;BMP_pressure;BME280_temperature;BME280_humidity;BME280_pressure;Samples;Min_cycle;Max_cycle;Signal;HPM_P1;HPM_P2
2022/11/08 00:01:30;;;;;;;7.03;2.73;;;;;;;11.31;100.00;100377.59;685002;28;4326;-68
2022/11/08 00:01:33;;;;;;;6.07;2.75;;;;;;;11.23;100.00;100372.44;686135;28;1631;-68
2022/11/08 00:01:54;;;;;;;6.95;2.85;;;;;;;11.23;100.00;100367.22;686852;28;1506;-68
2022/11/08 00:02:14;;;;;;;8.00;2.77;;;;;;;11.20;100.00;100372.47;685877;28;1068;-68
2022/11/08 00:02:34;;;;;;;7.23;2.90;;;;;;;11.18;100.00;100376.00;685398;28;1632;-68
2022/11/08 00:02:56;;;;;;;7.65;2.75;;;;;;;11.17;100.00;100372.53;687543;28;1257;-68
2022/11/08 00:03:16;;;;;;;7.45;2.83;;;;;;;11.18;100.00;100370.78;685668;28;1297;-69
2022/11/08 00:03:37;;;;;;;8.52;3.20;;;;;;;11.18;100.00;100376.84;685743;28;4575;-67
2022/11/08 00:04:06;;;;;;;8.27;2.97;;;;;;;11.16;100.00;100373.41;686707;28;1278;-67
2022/11/08 00:04:27;;;;;;;7.43;2.80;;;;;;;11.17;100.00;100369.03;686601;28;1234;-68
2022/11/08 00:04:47;;;;;;;7.27;2.93;;;;;;;11.18;100.00;100365.53;683360;28;2198;-67
2022/11/08 00:13:57;;;;;;;9.68;2.90;;;;;;;11.50;100.00;100378.19;686925;28;1335;-68
2022/11/08 00:14:17;;;;;;;7.13;2.80;;;;;;;11.59;100.00;100380.72;686302;28;1362;-67
2022/11/08 00:14:37;;;;;;;6.73;2.63;;;;;;;11.52;100.00;100381.69;686899;28;1250;-68
2022/11/08 00:14:58;;;;;;;6.57;2.67;;;;;;;11.54;100.00;100381.66;686401;28;1430;-67
2022/11/08 00:15:19;;;;;;;6.33;2.50;;;;;;;11.56;100.00;100378.13;687045;28;1476;-67
2022/11/08 00:15:39;;;;;;;7.15;2.50;;;;;;;11.53;100.00;100380.81;686657;28;4707;-68
2022/11/08 00:16:00;;;;;;;6.97;2.40;;;;;;;11.49;100.00;100384.34;686884;28;1519;-68
2022/11/08 00:16:20;;;;;;;5.65;2.38;;;;;;;11.53;100.00;100383.41;685690;28;1215;-68
2022/11/08 00:16:41;;;;;;;5.90;2.60;;;;;;;11.51;100.00;100385.19;688180;28;1378;-69
2022/11/08 00:17:01;;;;;;;6.57;2.80;;;;;;;11.50;100.00;100382.59;683708;28;1188;-67
2022/11/08 00:17:24;;;;;;;6.72;2.55;;;;;;;11.45;100.00;100382.66;683390;28;1578;-68
2022/11/08 00:17:44;;;;;;;6.20;2.70;;;;;;;11.44;100.00;100380.91;683092;28;5213;-68
2022/11/08 00:18:06;;;;;;;7.68;2.67;;;;;;;11.46;100.00;100388.75;682121;28;1251;-68
2022/11/08 00:18:26;;;;;;;7.68;2.70;;;;;;;11.48;100.00;100387.84;681041;28;1070;-68
2022/11/08 00:18:46;;;;;;;6.25;2.53;;;;;;;11.47;100.00;100382.63;679712;28;4390;-68
2022/11/08 00:19:07;;;;;;;6.90;2.93;;;;;;;11.48;100.00;100384.34;681645;28;1074;-68
2022/11/08 00:19:27;;;;;;;7.60;3.20;;;;;;;11.41;100.00;100383.56;682126;28;1311;-68
2022/11/08 00:19:48;;;;;;;8.80;3.07;;;;;;;11.38;100.00;100376.63;683570;28;1324;-68
2022/11/08 00:20:09;;;;;;;6.82;2.70;;;;;;;11.35;100.00;100381.91;683091;28;1129;-68
2022/11/08 00:20:29;;;;;;;6.30;2.45;;;;;;;11.37;100.00;100387.13;684323;28;1931;-68
2022/11/08 00:20:50;;;;;;;6.13;2.70;;;;;;;11.46;100.00;100383.50;684041;28;1573;-67
2022/11/08 00:21:10;;;;;;;6.82;2.67;;;;;;;11.50;100.00;100386.06;684605;28;1632;-67
2022/11/08 00:21:30;;;;;;;6.83;2.30;;;;;;;11.46;100.00;100384.34;685713;28;1263;-68
2022/11/08 00:21:51;;;;;;;7.57;2.50;;;;;;;11.44;100.00;100386.16;683222;28;4292;-68
2022/11/08 00:22:12;;;;;;;7.73;2.47;;;;;;;11.44;100.00;100387.88;685424;28;1231;-68
2022/11/08 00:22:33;;;;;;;7.70;2.20;;;;;;;11.43;100.00;100383.56;685039;28;1332;-68
2022/11/08 00:22:53;;;;;;;7.87;2.30;;;;;;;11.41;100.00;100380.97;683484;28;1251;-67
2022/11/08 00:23:14;;;;;;;8.18;2.70;;;;;;;11.38;100.00;100383.59;684602;28;1411;-67
2022/11/08 00:23:34;;;;;;;6.57;2.50;;;;;;;11.33;100.00;100388.91;685217;28;1274;-68
2022/11/08 00:23:54;;;;;;;7.40;2.70;;;;;;;11.31;100.00;100384.56;685134;28;1282;-68
2022/11/08 00:24:15;;;;;;;7.55;2.40;;;;;;;11.30;100.00;100381.09;683553;28;1350;-68
2022/11/08 00:24:35;;;;;;;8.37;2.30;;;;;;;11.31;100.00;100376.72;684737;28;4750;-68
2022/11/08 00:24:56;;;;;;;7.45;2.30;;;;;;;11.29;100.00;100370.66;683897;28;1269;-67
2022/11/08 00:25:16;;;;;;;6.20;2.42;;;;;;;11.43;100.00;100380.94;683749;28;1246;-68
2022/11/08 00:25:37;;;;;;;6.37;2.40;;;;;;;11.53;100.00;100374.69;682618;28;1242;-68
2022/11/08 00:25:57;;;;;;;6.13;2.25;;;;;;;11.55;100.00;100375.53;681726;28;1469;-67
2022/11/08 00:26:18;;;;;;;7.10;2.43;;;;;;;11.62;100.00;100384.19;681326;28;1488;-68
2022/11/08 00:26:38;;;;;;;8.27;2.65;;;;;;;11.55;100.00;100380.78;681816;28;1289;-68
2022/11/08 00:26:59;;;;;;;8.60;2.40;;;;;;;11.49;100.00;100384.34;682250;28;1601;-68
2022/11/08 00:27:21;;;;;;;6.80;2.40;;;;;;;11.43;100.00;100379.16;681641;28;1437;-68
2022/11/08 00:27:44;;;;;;;6.93;2.58;;;;;;;11.40;100.00;100376.59;682951;28;4483;-68
2022/11/08 00:28:04;;;;;;;8.13;2.53;;;;;;;11.43;100.00;100373.09;683207;28;1312;-68
2022/11/08 00:28:25;;;;;;;6.87;2.60;;;;;;;11.40;100.00;100373.97;684393;28;1254;-68
2022/11/08 00:28:45;;;;;;;6.40;2.42;;;;;;;11.39;100.00;100383.59;685135;28;1314;-68
2022/11/08 00:29:05;;;;;;;5.40;2.23;;;;;;;11.37;100.00;100387.13;684920;28;1430;-68
2022/11/08 00:29:26;;;;;;;5.27;2.40;;;;;;;11.45;100.00;100387.00;683877;28;1132;-68
2022/11/08 00:29:46;;;;;;;6.30;2.50;;;;;;;11.43;100.00;100383.56;683416;28;1262;-68
2022/11/08 00:30:07;;;;;;;5.93;2.53;;;;;;;11.40;100.00;100380.06;684607;28;1072;-68
2022/11/08 00:30:27;;;;;;;5.88;2.55;;;;;;;11.33;100.00;100388.03;685958;28;1262;-68
2022/11/08 00:30:48;;;;;;;6.38;2.50;;;;;;;11.30;100.00;100378.47;680999;28;4309;-68
2022/11/08 00:31:08;;;;;;;7.10;2.37;;;;;;;11.27;100.00;100385.47;680759;28;1280;-68
2022/11/08 00:31:28;;;;;;;5.83;2.40;;;;;;;11.27;100.00;100382.88;679746;28;1231;-68
2022/11/08 00:31:49;;;;;;;6.28;2.70;;;;;;;11.27;100.00;100393.31;680568;29;1303;-68
2022/11/08 00:32:18;;;;;;;6.40;2.77;;;;;;;11.28;100.00;100380.22;681736;28;1263;-68
2022/11/08 00:32:39;;;;;;;7.20;2.40;;;;;;;11.27;100.00;100375.00;682082;28;1252;-68
2022/11/08 00:32:59;;;;;;;6.97;2.57;;;;;;;11.27;100.00;100388.09;684324;28;1356;-68
2022/11/08 00:33:19;;;;;;;8.27;2.70;;;;;;;11.27;100.00;100388.97;682566;28;1811;-68
2022/11/08 00:33:40;;;;;;;7.03;2.60;;;;;;;11.24;100.00;100384.66;684054;28;4316;-68
2022/11/08 00:34:00;;;;;;;7.80;2.60;;;;;;;11.24;100.00;100381.16;683290;28;1148;-68
2022/11/08 00:34:20;;;;;;;6.37;2.60;;;;;;;11.24;100.00;100384.66;683276;28;1163;-68
2022/11/08 00:34:41;;;;;;;7.03;2.60;;;;;;;11.23;100.00;100385.53;683025;28;1462;-68
2022/11/08 00:35:01;;;;;;;6.60;2.60;;;;;;;11.23;100.00;100382.91;683167;28;1374;-68
2022/11/08 00:35:22;;;;;;;7.00;2.57;;;;;;;11.29;100.00;100381.09;682839;28;1315;-69
2022/11/08 00:35:42;;;;;;;8.32;2.30;;;;;;;11.32;100.00;100379.31;683363;28;1160;-68
2022/11/08 00:36:03;;;;;;;7.27;2.40;;;;;;;11.34;100.00;100384.50;683255;28;1232;-68
2022/11/08 00:36:23;;;;;;;6.53;2.55;;;;;;;11.31;100.00;100380.22;683786;28;1456;-69
2022/11/08 00:36:44;;;;;;;7.80;2.58;;;;;;;11.37;100.00;100381.88;682976;28;4511;-68
2022/11/08 00:37:04;;;;;;;8.17;2.80;;;;;;;11.43;100.00;100376.56;682497;28;1321;-68
2022/11/08 00:37:25;;;;;;;6.63;2.60;;;;;;;11.42;100.00;100374.81;683809;28;1191;-68
2022/11/08 00:37:45;;;;;;;6.50;2.50;;;;;;;11.57;100.00;100379.00;682309;28;1248;-68
2022/11/08 00:38:06;;;;;;;8.03;2.83;;;;;;;11.59;100.00;100374.63;682824;28;1472;-68
2022/11/08 00:38:26;;;;;;;7.88;2.80;;;;;;;11.54;100.00;100372.03;682810;28;1076;-68
2022/11/08 00:38:47;;;;;;;6.80;2.50;;;;;;;11.50;100.00;100378.19;682942;28;1515;-68
2022/11/08 00:39:08;;;;;;;7.47;2.40;;;;;;;11.45;100.00;100374.81;683562;28;1198;-68
2022/11/08 00:39:29;;;;;;;7.05;2.40;;;;;;;11.44;100.00;100380.91;686774;28;1238;-68
2022/11/08 00:39:49;;;;;;;7.40;2.63;;;;;;;11.48;100.00;100376.47;683131;28;4735;-68
2022/11/08 00:40:10;;;;;;;7.40;2.88;;;;;;;11.45;100.00;100382.66;682693;28;1250;-68
2022/11/08 00:40:31;;;;;;;6.43;2.83;;;;;;;11.43;100.00;100373.94;683425;28;1946;-67
2022/11/08 00:40:51;;;;;;;6.25;2.60;;;;;;;11.42;100.00;100377.44;682282;28;1254;-68
2022/11/08 00:41:11;;;;;;;6.77;2.50;;;;;;;11.47;100.00;100375.63;684025;28;1298;-68
2022/11/08 00:41:32;;;;;;;6.90;2.57;;;;;;;11.46;100.00;100379.13;683827;28;1259;-68
2022/11/08 00:41:52;;;;;;;7.10;2.58;;;;;;;11.45;100.00;100377.41;680520;29;1275;-68
2022/11/08 00:42:13;;;;;;;6.80;2.60;;;;;;;11.46;100.00;100381.75;681378;28;1477;-67
2022/11/08 00:42:33;;;;;;;8.68;2.78;;;;;;;11.44;100.00;100373.06;680558;28;4441;-67
2022/11/08 00:42:54;;;;;;;7.57;2.60;;;;;;;11.45;100.00;100376.53;682423;28;1393;-69
2022/11/08 00:43:14;;;;;;;6.33;2.50;;;;;;;11.51;100.00;100371.22;683523;28;1278;-69
2022/11/08 00:43:34;;;;;;;4.83;2.37;;;;;;;11.49;100.00;100380.84;683152;28;1275;-68
2022/11/08 00:43:55;;;;;;;6.88;2.58;;;;;;;11.44;100.00;100380.03;683490;28;1235;-68
2022/11/08 00:44:15;;;;;;;6.43;2.43;;;;;;;11.46;100.00;100384.34;683121;28;1535;-70
2022/11/08 00:44:36;;;;;;;7.40;2.47;;;;;;;11.44;100.00;100382.66;682948;28;1303;-68
2022/11/08 00:44:56;;;;;;;6.93;2.60;;;;;;;11.46;100.00;100381.75;685131;28;1556;-68
2022/11/08 00:45:16;;;;;;;5.28;2.40;;;;;;;11.56;100.00;100380.75;686275;28;1177;-68
2022/11/08 00:45:37;;;;;;;6.50;2.60;;;;;;;11.54;100.00;100379.03;684928;28;4351;-68
2022/11/08 00:45:57;;;;;;;8.23;2.73;;;;;;;11.52;100.00;100379.06;686766;28;1293;-68
2022/11/08 00:46:17;;;;;;;6.80;2.60;;;;;;;11.53;100.00;100378.19;685784;28;1381;-67
2022/11/08 00:46:38;;;;;;;5.97;2.60;;;;;;;11.54;100.00;100377.28;685870;28;1238;-68
2022/11/08 00:46:58;;;;;;;6.50;2.58;;;;;;;11.52;100.00;100383.41;684077;28;1404;-68
2022/11/08 00:47:19;;;;;;;6.87;2.53;;;;;;;11.51;100.00;100381.69;682561;28;1524;-69
2022/11/08 00:47:39;;;;;;;6.57;2.50;;;;;;;11.49;100.00;100386.06;683543;28;1708;-68
2022/11/08 00:47:59;;;;;;;6.47;2.60;;;;;;;11.47;100.00;100386.09;684013;28;1297;-68
2022/11/08 00:48:20;;;;;;;6.97;2.50;;;;;;;11.44;100.00;100377.41;683564;28;1598;-68
2022/11/08 00:48:40;;;;;;;6.78;2.58;;;;;;;11.40;100.00;100374.84;683820;28;4386;-68
2022/11/08 00:49:00;;;;;;;6.40;2.50;;;;;;;11.38;100.00;100381.84;683428;28;1388;-68
2022/11/08 00:49:21;;;;;;;8.15;2.70;;;;;;;11.38;100.00;100380.97;684184;28;1069;-68
2022/11/08 00:49:41;;;;;;;6.77;2.60;;;;;;;11.38;100.00;100375.75;684935;28;1238;-67
2022/11/08 00:50:02;;;;;;;8.30;2.60;;;;;;;11.40;100.00;100373.97;685280;28;1505;-68
2022/11/08 00:50:22;;;;;;;8.10;2.70;;;;;;;11.40;100.00;100380.06;684030;28;1604;-68
2022/11/08 00:50:42;;;;;;;7.10;3.07;;;;;;;11.40;100.00;100379.22;685483;28;1295;-68
2022/11/08 00:51:05;;;;;;;6.13;2.50;;;;;;;11.39;100.00;100387.94;683953;28;1134;-69
2022/11/08 00:51:25;;;;;;;5.82;2.50;;;;;;;11.39;100.00;100387.94;684523;28;1152;-67
2022/11/08 00:51:46;;;;;;;6.90;2.47;;;;;;;11.40;100.00;100379.22;685536;28;4299;-68
2022/11/08 00:52:06;;;;;;;5.10;2.37;;;;;;;11.38;100.00;100386.22;685224;28;1262;-68
2022/11/08 00:52:26;;;;;;;5.80;2.47;;;;;;;11.38;100.00;100383.59;684985;28;1136;-68
2022/11/08 00:52:47;;;;;;;7.27;2.80;;;;;;;11.37;100.00;100380.13;684497;28;1167;-68
2022/11/08 00:53:07;;;;;;;6.67;2.50;;;;;;;11.35;100.00;100376.66;680825;28;1347;-68
2022/11/08 00:53:28;;;;;;;7.03;2.70;;;;;;;11.35;100.00;100384.53;680151;28;1408;-68
2022/11/08 00:53:48;;;;;;;6.65;2.70;;;;;;;11.45;100.00;100385.28;681183;29;1271;-68
2022/11/08 00:54:13;;;;;;;7.17;2.70;;;;;;;11.47;100.00;100385.25;682532;28;1227;-67
2022/11/08 00:54:33;;;;;;;6.35;2.85;;;;;;;11.45;100.00;100387.00;682198;28;4310;-67
2022/11/08 00:54:53;;;;;;;5.70;2.60;;;;;;;11.42;100.00;100382.66;681391;28;1334;-67
2022/11/08 00:55:14;;;;;;;5.87;2.50;;;;;;;11.43;100.00;100380.94;683969;28;1278;-69
2022/11/08 00:55:34;;;;;;;6.63;2.63;;;;;;;11.42;100.00;100385.28;684017;28;1156;-67
2022/11/08 00:56:02;;;;;;;6.03;2.60;;;;;;;11.46;100.00;100392.22;684706;28;1219;-68
2022/11/08 00:56:23;;;;;;;6.15;2.63;;;;;;;11.55;100.00;100380.78;682759;28;1095;-68
2022/11/08 00:56:44;;;;;;;6.90;2.60;;;;;;;11.68;100.00;100381.47;683860;28;1064;-68
2022/11/08 00:57:05;;;;;;;7.30;2.50;;;;;;;11.81;100.00;100390.00;687641;28;1376;-68
2022/11/08 00:57:26;;;;;;;7.43;2.43;;;;;;;11.72;100.00;100385.78;685918;28;1275;-67
2022/11/08 00:57:47;;;;;;;6.55;2.65;;;;;;;11.67;100.00;100378.00;686149;28;4412;-68
2022/11/08 00:58:07;;;;;;;7.13;2.40;;;;;;;11.61;100.00;100383.28;687456;28;1345;-68
2022/11/08 00:58:28;;;;;;;6.50;2.60;;;;;;;11.72;100.00;100385.78;686315;28;1274;-67
2022/11/08 00:58:48;;;;;;;7.65;2.60;;;;;;;11.72;100.00;100377.91;683195;28;3642;-68
2022/11/08 00:59:14;;;;;;;7.22;2.50;;;;;;;11.72;100.00;100384.00;681373;28;1247;-68
2022/11/08 00:59:34;;;;;;;5.53;2.70;;;;;;;11.69;100.00;100381.44;680434;28;1195;-68
2022/11/08 00:59:54;;;;;;;7.18;2.60;;;;;;;11.62;100.00;100378.94;682102;28;1488;-68
2022/11/08 01:00:15;;;;;;;7.97;2.57;;;;;;;11.65;100.00;100378.91;682112;28;1101;-68
2022/11/08 01:00:35;;;;;;;7.20;2.60;;;;;;;11.70;100.00;100379.69;681719;28;4324;-69
2022/11/08 01:00:56;;;;;;;5.73;2.60;;;;;;;11.67;100.00;100377.09;684352;28;1266;-68
2022/11/08 01:01:19;;;;;;;6.63;2.67;;;;;;;11.62;100.00;100378.94;682591;28;1184;-68
2022/11/08 01:01:40;;;;;;;7.75;2.63;;;;;;;11.56;100.00;100378.13;684664;28;1398;-68
2022/11/08 01:02:01;;;;;;;6.25;2.70;;;;;;;11.54;100.00;100374.66;685040;28;1198;-68
2022/11/08 01:02:21;;;;;;;9.47;2.87;;;;;;;11.56;100.00;100375.53;681487;28;1002;-68
2022/11/08 01:02:41;;;;;;;7.80;2.77;;;;;;;11.58;100.00;100376.34;679006;29;1174;-67
2022/11/08 01:03:20;;;;;;;6.43;2.87;;;;;;;11.62;100.00;100376.34;679603;29;1242;-68
2022/11/08 01:03:40;;;;;;;6.75;2.53;;;;;;;11.71;100.00;100377.06;678919;29;4660;-69
2022/11/08 01:04:01;;;;;;;7.20;2.50;;;;;;;11.64;100.00;100382.41;679532;29;1232;-68
2022/11/08 01:04:21;;;;;;;7.93;2.58;;;;;;;11.58;100.00;100378.97;682679;28;1521;-73
2022/11/08 01:04:42;;;;;;;7.43;2.53;;;;;;;11.59;100.00;100378.09;684437;28;1035;-67
2022/11/08 01:05:02;;;;;;;7.40;2.50;;;;;;;11.58;100.00;100383.34;683913;28;1240;-68
2022/11/08 01:05:23;;;;;;;6.95;2.70;;;;;;;11.55;100.00;100376.41;684220;28;1674;-68
2022/11/08 01:05:43;;;;;;;7.17;2.60;;;;;;;11.54;100.00;100377.28;684084;28;1633;-68
2022/11/08 01:06:05;;;;;;;6.95;2.63;;;;;;;11.55;100.00;100380.78;683472;28;1453;-67
2022/11/08 01:06:26;;;;;;;6.60;2.60;;;;;;;11.51;100.00;100382.56;683106;28;1124;-68
2022/11/08 01:06:47;;;;;;;5.67;2.60;;;;;;;11.51;100.00;100371.22;684356;28;4437;-68
2022/11/08 01:07:07;;;;;;;6.30;2.60;;;;;;;11.48;100.00;100379.09;684372;28;1349;-68
2022/11/08 01:07:27;;;;;;;6.50;2.70;;;;;;;11.52;100.00;100376.44;684651;28;1428;-68
2022/11/08 01:07:48;;;;;;;8.40;2.70;;;;;;;11.56;100.00;100377.25;684774;28;1232;-67
2022/11/08 01:08:09;;;;;;;8.13;2.60;;;;;;;11.54;100.00;100372.03;684301;28;1431;-67
2022/11/08 01:08:29;;;;;;;5.95;2.70;;;;;;;11.67;100.00;100374.50;681576;28;1316;-68
2022/11/08 01:08:50;;;;;;;7.05;2.55;;;;;;;11.66;100.00;100375.38;679809;29;1452;-68
2022/11/08 01:09:11;;;;;;;8.27;2.65;;;;;;;11.64;100.00;100377.16;680203;29;1291;-68
2022/11/08 01:09:31;;;;;;;8.05;2.80;;;;;;;11.64;100.00;100385.00;678006;28;1247;-68
2022/11/08 01:09:51;;;;;;;6.97;2.80;;;;;;;11.58;100.00;100378.97;679288;29;4276;-68
2022/11/08 01:10:12;;;;;;;5.63;2.60;;;;;;;11.53;100.00;100375.56;679928;28;1307;-68
2022/11/08 01:10:32;;;;;;;5.30;2.40;;;;;;;11.62;100.00;100381.56;683295;28;1244;-68
2022/11/08 01:10:53;;;;;;;5.80;2.50;;;;;;;11.59;100.00;100374.63;681956;28;1326;-67
2022/11/08 01:11:15;;;;;;;7.40;2.63;;;;;;;11.64;100.00;100377.16;681035;28;1366;-68
2022/11/08 01:11:38;;;;;;;7.22;2.70;;;;;;;11.59;100.00;100372.84;683776;28;1256;-68
2022/11/08 01:11:58;;;;;;;6.50;2.88;;;;;;;11.62;100.00;100373.72;684512;28;1850;-68
2022/11/08 01:12:18;;;;;;;8.07;3.10;;;;;;;11.59;100.00;100375.47;683393;28;1618;-68
2022/11/08 01:12:39;;;;;;;5.70;2.45;;;;;;;11.57;100.00;100376.38;684606;28;4601;-69
2022/11/08 01:12:59;;;;;;;5.53;2.50;;;;;;;11.55;100.00;100373.78;681925;28;1537;-68
2022/11/08 01:13:21;;;;;;;6.22;2.50;;;;;;;11.70;100.00;100377.06;684355;28;1436;-67
2022/11/08 01:13:42;;;;;;;6.93;2.67;;;;;;;11.72;100.00;100375.31;685177;28;1294;-68
2022/11/08 01:14:02;;;;;;;10.35;2.92;;;;;;;11.75;100.00;100370.00;684611;28;1569;-67
2022/11/08 01:14:22;;;;;;;9.73;2.90;;;;;;;11.72;100.00;100375.31;683391;28;1102;-68
2022/11/08 01:14:43;;;;;;;7.03;2.50;;;;;;;11.66;100.00;100368.41;681502;28;1287;-67
2022/11/08 01:15:03;;;;;;;5.57;2.50;;;;;;;11.65;100.00;100373.66;681507;29;1373;-67
2022/11/08 01:15:24;;;;;;;6.47;2.63;;;;;;;11.62;100.00;100373.72;680394;28;1290;-68
2022/11/08 01:15:45;;;;;;;6.43;3.00;;;;;;;11.58;100.00;100371.13;682029;28;4371;-68
2022/11/08 01:16:06;;;;;;;6.05;2.75;;;;;;;11.56;100.00;100374.63;683083;28;1279;-69
2022/11/08 01:16:29;;;;;;;5.97;2.22;;;;;;;11.67;100.00;100379.72;685079;28;1158;-67
2022/11/08 01:16:51;;;;;;;6.15;2.40;;;;;;;11.63;100.00;100372.81;684430;28;1104;-68
2022/11/08 01:17:11;;;;;;;6.75;2.80;;;;;;;11.69;100.00;100373.59;683240;28;1282;-68
2022/11/08 01:17:31;;;;;;;6.17;2.70;;;;;;;11.66;100.00;100370.13;683026;28;1361;-68
2022/11/08 01:17:52;;;;;;;8.05;2.90;;;;;;;11.64;100.00;100366.69;683225;28;5350;-67
2022/11/08 01:18:14;;;;;;;10.47;3.40;;;;;;;11.64;100.00;100369.31;683228;28;1298;-68
2022/11/08 01:18:35;;;;;;;7.70;2.80;;;;;;;11.65;100.00;100374.53;683138;28;4335;-68
2022/11/08 01:18:57;;;;;;;7.63;2.80;;;;;;;11.74;100.00;100371.78;684687;28;1404;-68
2022/11/08 01:19:17;;;;;;;6.75;2.65;;;;;;;11.72;100.00;100365.69;687164;28;1265;-68
2022/11/08 01:19:37;;;;;;;6.13;2.60;;;;;;;11.72;100.00;100370.91;686328;28;1412;-67
2022/11/08 01:19:58;;;;;;;7.22;2.85;;;;;;;11.70;100.00;100366.59;687086;28;1562;-68
2022/11/08 01:20:18;;;;;;;7.50;2.83;;;;;;;11.68;100.00;100366.63;684552;28;1472;-68
2022/11/08 01:20:39;;;;;;;6.47;2.70;;;;;;;11.70;100.00;100361.34;687050;28;1952;-68
2022/11/08 01:21:02;;;;;;;7.25;2.90;;;;;;;11.81;100.00;100363.81;687834;28;1967;-68
2022/11/08 01:21:24;;;;;;;6.18;2.83;;;;;;;11.78;100.00;100369.09;686385;28;1147;-68
2022/11/08 01:21:44;;;;;;;5.70;2.70;;;;;;;11.74;100.00;100368.28;684765;28;4480;-68
2022/11/08 01:22:04;;;;;;;6.30;2.72;;;;;;;11.70;100.00;100362.22;683923;28;1576;-68
2022/11/08 01:22:25;;;;;;;6.13;2.60;;;;;;;11.68;100.00;100365.75;683823;28;1093;-68
2022/11/08 01:22:45;;;;;;;7.43;2.70;;;;;;;11.69;100.00;100367.50;683429;28;1345;-68
2022/11/08 01:23:06;;;;;;;7.55;2.60;;;;;;;11.72;100.00;100364.81;683104;28;1179;-67
2022/11/08 01:23:26;;;;;;;7.20;2.70;;;;;;;11.76;100.00;100361.28;680036;28;1798;-68
2022/11/08 01:23:46;;;;;;;7.63;2.77;;;;;;;11.76;100.00;100366.50;684360;28;1260;-67
2022/11/08 01:24:07;;;;;;;8.33;2.87;;;;;;;11.74;100.00;100368.28;685948;28;1281;-69
2022/11/08 01:24:27;;;;;;;7.33;2.70;;;;;;;11.71;100.00;100368.31;687402;28;1321;-69
2022/11/08 01:24:48;;;;;;;7.05;2.75;;;;;;;11.68;100.00;100363.13;686140;28;4266;-68
2022/11/08 01:25:08;;;;;;;8.00;2.80;;;;;;;11.78;100.00;100363.88;687376;28;1191;-68
2022/11/08 01:25:28;;;;;;;6.90;2.60;;;;;;;11.74;100.00;100368.28;689107;28;1322;-68
2022/11/08 01:25:49;;;;;;;6.38;2.58;;;;;;;11.72;100.00;100359.59;688405;28;1313;-68
2022/11/08 01:26:19;;;;;;;5.97;2.67;;;;;;;11.75;100.00;100363.03;686069;28;1247;-67
2022/11/08 01:26:39;;;;;;;6.90;2.60;;;;;;;11.74;100.00;100363.03;686409;28;1242;-68
2022/11/08 01:26:59;;;;;;;7.07;3.10;;;;;;;11.70;100.00;100361.34;687268;28;1441;-68
2022/11/08 01:27:20;;;;;;;7.28;3.10;;;;;;;11.70;100.00;100364.84;686013;28;1377;-68
2022/11/08 01:27:42;;;;;;;8.17;2.90;;;;;;;11.65;100.00;100358.81;683169;28;4429;-67
2022/11/08 01:28:03;;;;;;;6.28;2.90;;;;;;;11.65;100.00;100364.03;681163;28;1215;-68
2022/11/08 01:28:23;;;;;;;6.80;2.97;;;;;;;11.62;100.00;100360.63;683450;28;1072;-68
2022/11/08 01:28:44;;;;;;;7.07;2.95;;;;;;;11.61;100.00;100361.50;683499;28;1488;-71
2022/11/08 01:29:04;;;;;;;7.70;2.90;;;;;;;11.65;100.00;100364.03;684598;28;1290;-69
2022/11/08 01:29:24;;;;;;;7.53;3.00;;;;;;;11.69;100.00;100357.03;684975;28;1262;-68
2022/11/08 01:29:45;;;;;;;7.73;3.07;;;;;;;11.66;100.00;100357.03;685278;28;1519;-68
2022/11/08 01:30:06;;;;;;;7.43;3.20;;;;;;;11.67;100.00;100361.41;684949;28;1190;-68
2022/11/08 01:30:26;;;;;;;6.55;2.80;;;;;;;11.77;100.00;100360.41;685841;28;1441;-68
2022/11/08 01:30:47;;;;;;;5.83;2.70;;;;;;;11.74;100.00;100353.44;685321;28;4293;-68
2022/11/08 01:31:10;;;;;;;6.43;3.10;;;;;;;11.73;100.00;100353.47;683430;28;1477;-68
2022/11/08 01:31:31;;;;;;;6.65;2.80;;;;;;;11.71;100.00;100350.00;684559;28;1235;-68
2022/11/08 01:31:52;;;;;;;7.07;2.80;;;;;;;11.69;100.00;100352.63;684639;28;1424;-68
2022/11/08 01:32:12;;;;;;;7.95;3.00;;;;;;;11.73;100.00;100354.31;684139;28;1432;-68
2022/11/08 01:32:32;;;;;;;7.20;3.27;;;;;;;11.74;100.00;100353.44;683730;28;1183;-68
2022/11/08 01:32:53;;;;;;;6.50;3.00;;;;;;;11.77;100.00;100352.53;682814;28;1711;-68
2022/11/08 01:33:14;;;;;;;7.83;2.93;;;;;;;11.87;100.00;100348.88;683735;28;1267;-68
2022/11/08 01:33:35;;;;;;;7.75;3.00;;;;;;;11.86;100.00;100351.53;679493;28;4461;-69
2022/11/08 01:33:57;;;;;;;6.25;3.00;;;;;;;11.83;100.00;100351.59;683221;28;1591;-68
2022/11/08 01:34:17;;;;;;;6.82;3.28;;;;;;;11.80;100.00;100352.50;680546;28;1243;-67
2022/11/08 01:34:38;;;;;;;7.03;3.20;;;;;;;11.83;100.00;100341.97;681172;28;1268;-68
2022/11/08 01:34:58;;;;;;;7.13;2.97;;;;;;;11.80;100.00;100357.72;680573;28;1461;-68
2022/11/08 01:35:18;;;;;;;7.65;2.88;;;;;;;11.81;100.00;100354.22;686405;28;1437;-68
2022/11/08 01:35:42;;;;;;;6.70;2.67;;;;;;;11.84;100.00;100358.56;687081;28;1393;-68
2022/11/08 01:36:08;;;;;;;6.00;2.72;;;;;;;11.90;100.00;100353.22;682295;28;1327;-68
2022/11/08 01:36:28;;;;;;;6.70;3.08;;;;;;;11.92;100.00;100347.06;682288;28;1258;-68
2022/11/08 01:36:49;;;;;;;7.43;2.90;;;;;;;11.92;100.00;100352.31;680279;28;4499;-68
2022/11/08 01:37:09;;;;;;;6.97;2.85;;;;;;;12.01;100.00;100348.69;677087;28;1204;-68
2022/11/08 01:37:30;;;;;;;6.63;2.57;;;;;;;12.03;100.00;100348.66;678505;29;1426;-67
2022/11/08 01:37:50;;;;;;;6.90;2.60;;;;;;;12.06;100.00;100348.66;677511;29;1349;-68
2022/11/08 01:38:10;;;;;;;8.15;3.00;;;;;;;12.05;100.00;100352.16;678380;29;1255;-68
2022/11/08 01:38:32;;;;;;;7.77;2.83;;;;;;;11.99;100.00;100347.88;678827;29;1528;-69
2022/11/08 01:38:53;;;;;;;7.28;2.80;;;;;;;11.97;100.00;100348.78;681205;28;1287;-68
2022/11/08 01:39:15;;;;;;;7.95;2.88;;;;;;;11.96;100.00;100347.03;681830;28;1054;-68
2022/11/08 01:39:35;;;;;;;8.05;2.80;;;;;;;11.92;100.00;100341.84;684091;28;4345;-67
2022/11/08 01:39:55;;;;;;;7.70;2.93;;;;;;;12.01;100.00;100345.22;683040;28;1577;-68
2022/11/08 01:40:16;;;;;;;8.20;3.00;;;;;;;11.97;100.00;100344.41;684434;28;1244;-68
2022/11/08 01:40:45;;;;;;;7.13;2.80;;;;;;;11.97;100.00;100347.03;682730;28;1971;-68
2022/11/08 01:41:06;;;;;;;5.75;2.78;;;;;;;11.93;100.00;100343.56;682396;28;1321;-68
2022/11/08 01:41:27;;;;;;;6.10;2.80;;;;;;;11.90;100.00;100337.50;682961;28;1389;-68
2022/11/08 01:41:47;;;;;;;5.67;2.70;;;;;;;11.85;100.00;100342.81;682729;28;1482;-68
2022/11/08 01:42:07;;;;;;;6.53;2.92;;;;;;;11.91;100.00;100350.56;683000;28;1338;-67
2022/11/08 01:42:29;;;;;;;6.00;2.83;;;;;;;11.88;100.00;100344.50;682418;28;1491;-69
2022/11/08 01:42:50;;;;;;;6.07;2.63;;;;;;;11.99;100.00;100341.75;683444;28;4444;-67
2022/11/08 01:43:33;;;;;;;6.77;2.60;;;;;;;12.04;100.00;100340.78;680176;29;1228;-67
2022/11/08 01:43:56;;;;;;;7.63;2.90;;;;;;;12.09;100.00;100333.72;680127;29;1239;-67
2022/11/08 01:44:16;;;;;;;6.10;2.80;;;;;;;12.04;100.00;100339.94;677468;29;1334;-67
2022/11/08 01:44:59;;;;;;;6.22;2.90;;;;;;;11.97;100.00;100338.31;674467;29;2000;-67
2022/11/08 01:45:57;;;;;;;6.43;2.60;;;;;;;11.90;100.00;100335.72;679217;29;1216;-67
2022/11/08 01:46:17;;;;;;;6.45;2.90;;;;;;;11.85;100.00;100334.06;683970;28;5570;-67
2022/11/08 01:46:39;;;;;;;6.30;2.80;;;;;;;11.86;100.00;100333.19;686657;28;1541;-66
2022/11/08 01:46:59;;;;;;;5.90;2.80;;;;;;;11.84;100.00;100327.13;684854;28;1672;-66
2022/11/08 01:47:19;;;;;;;7.17;2.80;;;;;;;11.82;100.00;100332.38;685570;28;1507;-67
2022/11/08 01:47:40;;;;;;;7.45;2.75;;;;;;;11.89;100.00;100330.53;685509;28;1418;-67
2022/11/08 01:48:00;;;;;;;9.90;2.90;;;;;;;11.86;100.00;100331.44;685747;28;1488;-67
2022/11/08 01:48:22;;;;;;;7.53;2.75;;;;;;;11.90;100.00;100329.63;684793;28;1297;-67
2022/11/08 01:48:52;;;;;;;6.18;2.80;;;;;;;11.96;100.00;100321.69;685005;28;4389;-68
2022/11/08 01:49:38;;;;;;;7.15;2.70;;;;;;;12.07;100.00;100326.78;685566;28;1262;-67
2022/11/08 01:50:17;;;;;;;6.22;2.70;;;;;;;12.06;100.00;100325.06;685817;28;1183;-68
2022/11/08 01:50:38;;;;;;;8.20;3.28;;;;;;;12.03;100.00;100328.59;685200;28;1153;-67